AirNav   Air Wisconsin Airman Trainee
 
 887 users online  

PS06 Snook Airport
Beaver Springs, Pennsylvania, USA

GOING TO BEAVER SPRINGS?


FAA INFORMATION EFFECTIVE 28 MARCH 2019

Location

FAA Identifier: PS06
Lat/Long: 40-44-00.2780N / 077-15-58.9570W
40-44.004633N / 077-15.982617W
40.7334106 / -77.2663769
(estimated)
Elevation: 710 ft. / 216 m (estimated)
Variation: 10W (1985)
From city: 3 miles SW of BEAVER SPRINGS, PA
Time zone: UTC -4 (UTC -5 during Standard Time)
Zip code: 17812

Airport Operations

Airport use: Private use. Permission required prior to landing
Activation date: 04/1983
Control tower: no
ARTCC: NEW YORK CENTER
FSS: WILLIAMSPORT FLIGHT SERVICE STATION
Attendance: UNATNDD
Wind indicator: yes
Segmented circle: no

Airport Communications

WX AWOS-3PT at RVL (17 nm W): 123.85 (717-667-3993)
WX ASOS at SEG (19 nm E): 123.975 (570-374-4099)

Nearby radio navigation aids

VOR radial/distance  VOR name  Freq  Var
SEGr267/17.7SELINSGROVE VOR/DME110.4008W
HARr351/27.4HARRISBURG VORTAC112.5010W
RAVr301/32.2RAVINE VORTAC114.6011W
MIPr246/32.3MILTON VORTAC109.2009W
PSBr118/34.8PHILIPSBURG VORTAC115.5010W

 
NDB name  Hdg/Dist  Freq  Var  ID
BELLGROVE309/37.132810WBZJ -... --.. .---

Airport Services

Runway Information

Runway 7/25

Dimensions: 1300 x 100 ft. / 396 x 30 m
Surface: turf
RUNWAY 7  RUNWAY 25
Traffic pattern: leftleft
Obstructions: 106 ft. trees, 1136 ft. from runway76 ft. trees, 876 ft. from runway

Airport Ownership and Management from official FAA records

Ownership: Privately-owned
Owner: HAROLD F. & ILAH T. SNOOK
132 BARNSTORMER LANE
BEAVER SPRINGS, PA 17812
Phone 570-658-7245
Manager: HAROLD F. SNOOK
132 BARNSTORMER LANE
BEAVER SPRINGS, PA 17812
Phone 570-658-7245

Airport Operational Statistics

Aircraft based on the field: 5
Single engine airplanes: 5
    

Instrument Procedures

There are no published instrument procedures at PS06.

Some nearby airports with instrument procedures:

P34 - Mifflintown Airport (10 nm SW)
KRVL - Mifflin County Airport (17 nm W)
KSEG - Penn Valley Airport (19 nm E)
02P - Stottle Memorial Heliport (24 nm SW)
KLHV - William T Piper Memorial Airport (25 nm N)
 
Loc | Ops | Rwys | IFR | FBO | Links
Com | Nav | Svcs | Stats | Notes
Area around PS06 (Snook Airport)
 
Road maps at: MapQuest Bing Google
 
Aerial photo
No photo
 
Sectional chart

 
Airport distance calculator
Flying to Snook Airport? Find the distance to fly.

From to PS06

Sunrise and sunset
Times for 21-Apr-2019
 Local
(UTC-4)
 Zulu
(UTC)
Morning civil twilight05:5409:54
Sunrise06:2210:22
Sunset19:5323:53
Evening civil twilight20:2200:22

Current date and time
Zulu (UTC)  22-Apr-2019 01:29:53
Local (UTC-4)  21-Apr-2019 21:29:53
 
METAR
KRVL 
17nm W 
220115Z AUTO 23004KT 10SM FEW065 BKN075 BKN110 13/07 A3012 RMK A01
KSEG 
19nm E 
220053Z AUTO 30004KT 10SM FEW075 SCT100 14/08 A3010 RMK AO2 SLP191 T01390078
KUNV 
27nm W 
220053Z 28006KT 10SM BKN095 11/06 A3013
TAF
KUNV 
27nm W 
212150Z 2122/2218 29010G15KT P6SM -SHRA SCT025 BKN050 TEMPO 2122/2124 5SM -SHRA BKN030 OVC050 FM220000 31007KT P6SM BKN040 FM220300 VRB03KT P6SM BKN030 FM221200 33007KT P6SM SCT100
NOTAMs
Click for the latest NOTAMs
NOTAMs are issued by the DoD/FAA and will open in a separate window not controlled by AirNav.

 

 
 

Would you like to see your business listed on this page?

 If your business provides an interesting product or service to pilots, flight crews, aircraft, or users of the Snook Airport, you should consider listing it here.  To start the listing process, click on the button below
 
Add a business
 

Other Pages about Snook Airport

Update a link
 
Copyright © AirNav, LLC. All rights reserved. Privacy Policy  Contact